Time;durP1;ratioP1;P1;durP2;ratioP2;P2;SDS_P1;SDS_P2;PMS_P1;PMS_P2;Temp;Humidity;BMP_temperature;BMP_pressure;BME280_temperature;BME280_humidity;BME280_pressure;Samples;Min_cycle;Max_cycle;Signal;HPM_P1;HPM_P2
2022/08/07 00:00:58;;;;;;;2.40;2.20;;;15.80;1.00;;;;;;5076527;28;20180;-74
2022/08/07 00:03:25;;;;;;;3.10;2.50;;;15.70;1.00;;;;;;5076446;28;20209;-74
2022/08/07 00:05:54;;;;;;;4.30;2.27;;;15.70;1.00;;;;;;5076276;28;20251;-75
2022/08/07 00:08:21;;;;;;;2.20;2.00;;;15.80;1.00;;;;;;5075208;28;20263;-74
2022/08/07 00:10:48;;;;;;;2.30;2.10;;;15.80;1.00;;;;;;5076466;28;20226;-75
2022/08/07 00:13:14;;;;;;;3.17;2.27;;;15.80;1.00;;;;;;5107655;28;20306;-75
2022/08/07 00:15:39;;;;;;;3.77;2.43;;;15.80;1.00;;;;;;5116944;28;20173;-74
2022/08/07 00:18:07;;;;;;;2.77;2.40;;;15.80;1.00;;;;;;5117163;28;20246;-75
2022/08/07 00:20:33;;;;;;;3.27;2.50;;;15.80;1.00;;;;;;5116699;28;20254;-74
2022/08/07 00:22:59;;;;;;;2.97;2.37;;;15.70;1.00;;;;;;5116884;28;20408;-74
2022/08/07 00:25:24;;;;;;;4.13;2.50;;;15.60;1.00;;;;;;5116734;28;20163;-75
2022/08/07 00:27:51;;;;;;;4.20;2.53;;;15.50;1.00;;;;;;5116888;28;20215;-74
2022/08/07 00:30:17;;;;;;;5.60;3.30;;;15.40;1.00;;;;;;5116783;28;20163;-74
2022/08/07 00:32:46;;;;;;;6.57;2.37;;;15.30;1.00;;;;;;5116534;28;20195;-74
2022/08/07 00:35:11;;;;;;;3.17;2.83;;;15.30;1.00;;;;;;5097884;28;20175;-75
2022/08/07 00:37:37;;;;;;;3.40;2.47;;;15.20;1.00;;;;;;5098463;28;20174;-74
2022/08/07 00:40:03;;;;;;;3.33;2.70;;;15.20;1.00;;;;;;5116607;28;20667;-74
2022/08/07 00:42:31;;;;;;;2.63;2.53;;;15.10;1.00;;;;;;5116545;28;20159;-74
2022/08/07 00:44:56;;;;;;;3.10;2.90;;;15.10;1.00;;;;;;5116314;28;20179;-73
2022/08/07 00:47:22;;;;;;;3.40;2.47;;;15.10;1.00;;;;;;5116389;28;20170;-73
2022/08/07 00:49:47;;;;;;;3.10;2.90;;;15.20;1.00;;;;;;5116131;28;20174;-74
2022/08/07 00:52:13;;;;;;;3.67;3.00;;;15.20;1.00;;;;;;5116405;28;20680;-74
2022/08/07 00:54:38;;;;;;;3.43;3.13;;;15.20;1.00;;;;;;5116326;28;20174;-74
2022/08/07 00:57:05;;;;;;;5.53;3.10;;;15.20;1.00;;;;;;5116246;28;20167;-74
2022/08/07 00:59:31;;;;;;;3.93;3.17;;;15.20;1.00;;;;;;5116166;28;20650;-73
2022/08/07 01:01:57;;;;;;;3.90;3.30;;;15.20;1.00;;;;;;5116343;28;20167;-72
2022/08/07 01:04:23;;;;;;;3.40;3.10;;;15.30;1.00;;;;;;5097365;28;20211;-73
2022/08/07 01:06:49;;;;;;;5.50;3.27;;;15.30;1.00;;;;;;5116097;28;20638;-73
2022/08/07 01:09:15;;;;;;;3.60;3.30;;;15.30;1.00;;;;;;5116055;28;20246;-74
2022/08/07 01:11:41;;;;;;;6.27;3.20;;;15.20;1.00;;;;;;5115081;28;20181;-74
2022/08/07 01:14:07;;;;;;;7.60;3.20;;;15.20;1.00;;;;;;5115832;28;20197;-73
2022/08/07 01:16:35;;;;;;;5.00;3.47;;;15.10;1.00;;;;;;5115932;28;20277;-73
2022/08/07 01:19:02;;;;;;;5.10;3.30;;;15.00;1.00;;;;;;5115563;28;20524;-73
2022/08/07 01:21:27;;;;;;;5.70;2.90;;;15.10;1.00;;;;;;5097369;28;20178;-73
2022/08/07 01:23:55;;;;;;;3.03;2.83;;;15.10;1.00;;;;;;5115677;28;20670;-73
2022/08/07 01:26:22;;;;;;;3.37;3.17;;;15.10;1.00;;;;;;5115644;28;20172;-73
2022/08/07 01:28:49;;;;;;;3.80;3.50;;;15.00;1.00;;;;;;5115621;28;20203;-72
2022/08/07 01:31:17;;;;;;;4.53;3.30;;;14.90;1.00;;;;;;5115503;28;20201;-72
2022/08/07 01:33:43;;;;;;;3.60;3.30;;;14.90;1.00;;;;;;5096762;28;20193;-73
2022/08/07 01:36:10;;;;;;;6.93;3.67;;;14.90;1.00;;;;;;5115325;28;20635;-73
2022/08/07 01:38:37;;;;;;;4.00;3.60;;;14.80;1.00;;;;;;5115525;28;20189;-73
2022/08/07 01:41:04;;;;;;;4.50;3.50;;;14.70;1.00;;;;;;5115181;28;20242;-73
2022/08/07 01:43:30;;;;;;;3.47;3.20;;;14.80;1.00;;;;;;5115322;28;20301;-73
2022/08/07 01:45:57;;;;;;;4.90;3.37;;;14.80;1.00;;;;;;5115227;28;20289;-73
2022/08/07 01:48:23;;;;;;;4.33;3.20;;;14.90;1.00;;;;;;5114865;28;20252;-73
2022/08/07 01:51:01;;;;;;;3.80;3.50;;;14.90;1.00;;;;;;5115291;28;20163;-73
2022/08/07 01:53:31;;;;;;;4.73;3.93;;;14.90;1.00;;;;;;5115105;28;20672;-73
2022/08/07 01:56:02;;;;;;;5.70;3.77;;;14.90;1.00;;;;;;5115038;28;20164;-72
2022/08/07 01:58:31;;;;;;;5.03;3.57;;;14.70;1.00;;;;;;5096843;28;20642;-73
2022/08/07 02:01:03;;;;;;;4.20;3.90;;;14.70;3.80;;;;;;5114984;28;20205;-72
2022/08/07 02:03:32;;;;;;;4.87;3.50;;;14.60;6.80;;;;;;5114513;28;20206;-72
2022/08/07 02:06:06;;;;;;;4.10;3.67;;;14.60;9.60;;;;;;5114524;28;20244;-72
2022/08/07 02:08:36;;;;;;;6.57;3.97;;;14.60;12.50;;;;;;5115046;28;20178;-72
2022/08/07 02:11:03;;;;;;;4.40;4.00;;;14.60;11.90;;;;;;5114925;28;20175;-73
2022/08/07 02:13:31;;;;;;;4.93;3.67;;;14.60;12.50;;;;;;5114468;28;20280;-72
2022/08/07 02:15:59;;;;;;;6.67;4.13;;;14.60;14.90;;;;;;5114376;28;20163;-72
2022/08/07 02:18:28;;;;;;;5.23;3.90;;;14.60;16.80;;;;;;5114592;28;20168;-72
2022/08/07 02:20:57;;;;;;;4.57;3.90;;;14.60;17.70;;;;;;5114524;28;20170;-73
2022/08/07 02:23:24;;;;;;;4.63;3.77;;;14.60;16.30;;;;;;5113528;28;20198;-72
2022/08/07 02:25:53;;;;;;;4.63;4.20;;;14.60;19.20;;;;;;5114415;28;20167;-72
2022/08/07 02:28:20;;;;;;;5.67;3.70;;;14.50;21.60;;;;;;5114542;28;20590;-72
2022/08/07 02:30:47;;;;;;;4.73;4.30;;;14.50;24.10;;;;;;5113920;28;20167;-73
2022/08/07 02:33:14;;;;;;;4.60;3.97;;;14.50;21.80;;;;;;5114204;28;20170;-73
2022/08/07 02:35:41;;;;;;;4.20;3.90;;;14.60;24.30;;;;;;5114193;28;20175;-73
2022/08/07 02:38:07;;;;;;;5.03;4.43;;;14.60;24.60;;;;;;5096150;28;20163;-72
2022/08/07 02:40:34;;;;;;;6.97;4.60;;;14.60;22.60;;;;;;5114354;28;20174;-73
2022/08/07 02:43:01;;;;;;;6.63;4.60;;;14.50;24.40;;;;;;5095880;28;20191;-73
2022/08/07 02:45:29;;;;;;;5.70;4.53;;;14.50;25.60;;;;;;5113572;28;20171;-73
2022/08/07 02:47:55;;;;;;;6.73;4.50;;;14.50;25.80;;;;;;5114035;28;20175;-72
2022/08/07 02:50:22;;;;;;;6.20;4.60;;;14.50;27.60;;;;;;5096111;28;20163;-73
2022/08/07 02:53:06;;;;;;;7.50;4.53;;;14.50;27.10;;;;;;5113985;28;20175;-73
2022/08/07 02:55:36;;;;;;;4.80;4.33;;;14.50;26.90;;;;;;5113961;28;20179;-73
2022/08/07 02:58:05;;;;;;;7.37;4.63;;;14.50;30.00;;;;;;5113773;28;20194;-74
2022/08/07 03:00:34;;;;;;;5.23;4.73;;;14.50;32.40;;;;;;5113416;28;20646;-73
2022/08/07 03:03:01;;;;;;;7.77;4.87;;;14.50;30.80;;;;;;5113870;28;20213;-73
2022/08/07 03:05:27;;;;;;;6.57;4.77;;;14.60;29.20;;;;;;5113670;28;20228;-73
2022/08/07 03:07:54;;;;;;;4.60;4.30;;;14.60;25.50;;;;;;5113884;28;20179;-74
2022/08/07 03:10:21;;;;;;;5.30;4.90;;;14.60;26.70;;;;;;5095544;28;20615;-73
2022/08/07 03:12:48;;;;;;;5.60;4.23;;;14.50;28.30;;;;;;5113226;28;20222;-72
2022/08/07 03:15:15;;;;;;;5.63;4.97;;;14.50;30.40;;;;;;5095312;28;20202;-72
2022/08/07 03:17:41;;;;;;;5.60;4.97;;;14.50;30.90;;;;;;5113605;28;20185;-74
2022/08/07 03:20:07;;;;;;;6.10;4.90;;;14.40;39.50;;;;;;5113838;28;20163;-74
2022/08/07 03:22:34;;;;;;;5.87;5.03;;;14.40;41.70;;;;;;5113526;28;20182;-74
2022/08/07 03:25:00;;;;;;;6.90;4.90;;;14.30;44.20;;;;;;5113548;28;20220;-74
2022/08/07 03:27:27;;;;;;;6.47;4.90;;;14.30;48.70;;;;;;5113643;28;20216;-73
2022/08/07 03:29:54;;;;;;;5.70;5.10;;;14.40;43.50;;;;;;5113398;28;20167;-74
2022/08/07 03:32:24;;;;;;;4.83;4.43;;;14.40;41.70;;;;;;5113409;28;20251;-73
2022/08/07 03:34:55;;;;;;;5.27;4.87;;;14.30;41.10;;;;;;5116368;28;20162;-73
2022/08/07 03:37:22;;;;;;;6.83;5.33;;;14.40;43.50;;;;;;5118032;28;20167;-73
2022/08/07 03:39:49;;;;;;;8.53;4.90;;;14.40;41.30;;;;;;5099359;28;20167;-73
2022/08/07 03:42:16;;;;;;;5.10;4.70;;;14.40;39.00;;;;;;5117530;28;20164;-74
2022/08/07 03:44:43;;;;;;;7.20;4.80;;;14.40;39.10;;;;;;5117152;28;20199;-74
2022/08/07 03:47:11;;;;;;;5.33;4.77;;;14.30;40.30;;;;;;5117490;28;20246;-73
2022/08/07 03:49:37;;;;;;;5.23;4.83;;;14.30;42.80;;;;;;5117579;28;20171;-74
2022/08/07 03:52:04;;;;;;;5.23;4.70;;;14.30;43.80;;;;;;5117622;28;20336;-74
2022/08/07 03:54:30;;;;;;;5.47;4.97;;;14.30;43.60;;;;;;5117278;28;20202;-74
2022/08/07 03:56:56;;;;;;;4.93;4.43;;;14.30;46.80;;;;;;5117049;28;20603;-74
2022/08/07 03:59:22;;;;;;;5.10;4.70;;;14.30;47.90;;;;;;5117037;28;20167;-73
2022/08/07 04:01:48;;;;;;;5.27;4.77;;;14.20;47.00;;;;;;5117408;28;20619;-73
2022/08/07 04:04:18;;;;;;;8.37;4.97;;;14.20;47.80;;;;;;5116975;28;20211;-74
2022/08/07 04:06:44;;;;;;;6.53;5.07;;;14.20;50.00;;;;;;5116837;28;20193;-73
2022/08/07 04:09:11;;;;;;;7.30;4.70;;;14.30;55.00;;;;;;5116926;28;20171;-73
2022/08/07 04:11:39;;;;;;;5.80;4.83;;;14.30;60.00;;;;;;5116668;28;20228;-72
2022/08/07 04:14:06;;;;;;;6.30;4.60;;;14.20;59.40;;;;;;5116736;28;20195;-73
2022/08/07 04:16:32;;;;;;;6.00;4.90;;;14.20;62.80;;;;;;5116747;28;20179;-73
2022/08/07 04:18:58;;;;;;;5.47;4.97;;;14.10;60.50;;;;;;5117011;28;20258;-73
2022/08/07 04:21:24;;;;;;;5.90;5.40;;;14.00;63.70;;;;;;5116564;28;20167;-74
2022/08/07 04:23:51;;;;;;;5.23;4.83;;;13.90;72.80;;;;;;5116851;28;20289;-73
2022/08/07 04:26:16;;;;;;;9.33;6.10;;;13.80;74.60;;;;;;5116421;28;20207;-74
2022/08/07 04:28:42;;;;;;;6.33;5.73;;;13.90;72.60;;;;;;5116653;28;20171;-74
2022/08/07 04:31:08;;;;;;;7.03;6.33;;;13.90;72.80;;;;;;5116915;28;20264;-74
2022/08/07 04:33:35;;;;;;;9.47;6.97;;;13.90;72.60;;;;;;5116651;28;20167;-74
2022/08/07 04:36:07;;;;;;;6.97;6.23;;;14.10;73.00;;;;;;5116354;28;20173;-74
2022/08/07 04:38:34;;;;;;;6.57;5.97;;;14.40;70.80;;;;;;5098267;28;20281;-73
2022/08/07 04:40:59;;;;;;;6.50;5.90;;;14.80;44.20;;;;;;5115867;28;20181;-73
2022/08/07 04:43:45;;;;;;;12.97;6.73;;;15.20;27.40;;;;;;5116305;28;20200;-74
2022/08/07 04:46:21;;;;;;;7.13;6.43;;;15.70;1.00;;;;;;5114771;28;20202;-71
2022/08/07 04:49:04;;;;;;;7.23;6.50;;;15.80;1.00;;;;;;5115998;28;20179;-73
2022/08/07 04:51:53;;;;;;;9.23;6.60;;;16.10;1.00;;;;;;5116204;28;20163;-73
2022/08/07 04:54:30;;;;;;;9.47;6.77;;;16.70;1.00;;;;;;5116237;28;20178;-72
2022/08/07 04:57:10;;;;;;;6.73;6.13;;;17.50;1.00;;;;;;5115261;28;20254;-72
2022/08/07 04:59:54;;;;;;;6.40;5.90;;;18.30;1.00;;;;;;5116412;28;20165;-72
2022/08/07 05:02:49;;;;;;;7.00;6.20;;;19.10;1.00;;;;;;5097525;28;20182;-73
2022/08/07 05:05:27;;;;;;;7.20;5.90;;;19.40;1.00;;;;;;5115827;28;20194;-74
2022/08/07 05:08:01;;;;;;;6.00;5.40;;;19.70;1.00;;;;;;5115894;28;20163;-74
2022/08/07 05:10:39;;;;;;;5.95;5.45;;;19.70;99.90;;;;;;5115363;28;20299;-74
2022/08/07 05:13:08;;;;;;;6.50;5.50;;;20.10;1.00;;;;;;5115733;28;20219;-75
2022/08/07 05:15:37;;;;;;;5.60;5.10;;;20.00;1.00;;;;;;5097027;28;20179;-76
2022/08/07 05:18:07;;;;;;;5.57;5.03;;;20.20;1.00;;;;;;5115557;28;20524;-76
2022/08/07 05:20:39;;;;;;;5.63;5.18;;;21.00;1.00;;;;;;5115659;28;20186;-76
2022/08/07 05:23:18;;;;;;;6.03;5.38;;;21.50;99.90;;;;;;5115170;28;20240;-76
2022/08/07 05:25:45;;;;;;;5.03;4.53;;;21.70;1.00;;;;;;5096993;28;20174;-77
2022/08/07 05:28:13;;;;;;;5.10;4.55;;;21.90;1.00;;;;;;5115656;28;20202;-78
2022/08/07 05:30:41;;;;;;;4.97;4.28;;;22.50;99.90;;;;;;5097222;28;20256;-76
2022/08/07 05:33:08;;;;;;;5.03;4.53;;;23.30;46.60;;;;;;5115386;28;20171;-78
2022/08/07 05:35:35;;;;;;;4.80;4.40;;;23.60;1.00;;;;;;5115230;28;20225;-78
2022/08/07 05:38:03;;;;;;;5.22;4.72;;;23.60;1.00;;;;;;5115317;28;20163;-78
2022/08/07 05:40:29;;;;;;;5.82;5.00;;;23.30;1.00;;;;;;5114803;28;20178;-79
2022/08/07 05:42:56;;;;;;;5.00;4.60;;;23.00;1.00;;;;;;5115056;28;20649;-78
2022/08/07 05:45:23;;;;;;;6.32;4.90;;;23.30;1.00;;;;;;5115136;28;20167;-78
2022/08/07 05:47:49;;;;;;;6.07;5.00;;;22.60;99.90;;;;;;5114367;28;20197;-79
2022/08/07 05:50:15;;;;;;;5.30;4.88;;;24.00;1.00;;;;;;5115147;28;20160;-79
2022/08/07 05:52:41;;;;;;;5.10;4.60;;;24.20;1.00;;;;;;5114973;28;20167;-79
2022/08/07 05:55:07;;;;;;;4.47;4.13;;;25.10;99.90;;;;;;5114324;28;20539;-80
2022/08/07 05:57:35;;;;;;;5.40;4.90;;;24.90;99.90;;;;;;5114429;28;20163;-80
2022/08/07 06:00:02;;;;;;;4.97;4.57;;;24.70;99.90;;;;;;5115010;28;20163;-80
2022/08/07 06:02:31;;;;;;;5.50;5.10;;;24.50;99.90;;;;;;5114663;28;20578;-80
2022/08/07 06:05:03;;;;;;;5.05;4.35;;;24.10;1.00;;;;;;5114543;28;20691;-80
2022/08/07 06:07:31;;;;;;;5.18;4.45;;;24.00;1.00;;;;;;5114637;28;20248;-80
2022/08/07 06:09:57;;;;;;;4.47;4.10;;;25.10;99.90;;;;;;5114121;28;20558;-80
2022/08/07 06:12:22;;;;;;;4.32;4.00;;;26.90;99.90;;;;;;5114116;28;20512;-80
2022/08/07 06:14:48;;;;;;;4.80;4.40;;;27.20;99.90;;;;;;5114512;28;20175;-81
2022/08/07 06:17:15;;;;;;;5.32;4.30;;;27.90;99.90;;;;;;5095732;28;20175;-80
2022/08/07 06:19:41;;;;;;;4.55;4.13;;;27.50;99.90;;;;;;5114531;28;20698;-80
2022/08/07 06:22:08;;;;;;;4.18;3.80;;;27.30;99.90;;;;;;5095832;28;20225;-77
2022/08/07 06:24:35;;;;;;;4.53;4.13;;;27.60;99.90;;;;;;5113743;28;20221;-77
2022/08/07 06:27:02;;;;;;;4.10;3.78;;;28.20;99.90;;;;;;5114102;28;20174;-77
2022/08/07 06:29:28;;;;;;;4.13;3.72;;;27.60;99.90;;;;;;5114416;28;20230;-76
2022/08/07 06:31:54;;;;;;;4.70;4.30;;;26.90;99.90;;;;;;5113954;28;20582;-76
2022/08/07 06:34:24;;;;;;;5.88;4.03;;;27.00;99.90;;;;;;5095850;28;20167;-76
2022/08/07 06:36:50;;;;;;;5.50;3.78;;;27.30;99.90;;;;;;5113449;28;20171;-76
2022/08/07 06:39:15;;;;;;;4.10;3.80;;;27.70;99.90;;;;;;5113818;28;20167;-76
2022/08/07 06:42:03;;;;;;;3.22;2.97;;;28.30;99.90;;;;;;5113768;28;20178;-77
2022/08/07 06:44:30;;;;;;;3.38;3.17;;;29.30;99.90;;;;;;5113639;28;20611;-76
2022/08/07 06:46:56;;;;;;;4.05;3.63;;;29.30;99.90;;;;;;5095166;28;20172;-76
2022/08/07 06:49:21;;;;;;;3.60;3.30;;;30.20;99.90;;;;;;5113867;28;20164;-76
2022/08/07 06:51:48;;;;;;;3.33;3.13;;;29.50;99.90;;;;;;5113355;28;20506;-76
2022/08/07 06:54:16;;;;;;;3.08;2.72;;;29.80;99.90;;;;;;5113429;28;20243;-76
2022/08/07 06:56:45;;;;;;;4.25;3.10;;;30.10;99.90;;;;;;5113550;28;20178;-76
2022/08/07 06:59:14;;;;;;;2.97;2.70;;;30.60;99.90;;;;;;5113426;28;20171;-77
2022/08/07 07:01:41;;;;;;;3.38;3.08;;;31.20;97.90;;;;;;5113779;28;20186;-77
2022/08/07 07:04:07;;;;;;;3.75;2.90;;;32.00;87.80;;;;;;5113534;28;20285;-79
2022/08/07 07:06:33;;;;;;;3.28;2.97;;;31.80;79.50;;;;;;5113360;28;20167;-79
2022/08/07 07:09:18;;;;;;;3.30;2.83;;;30.40;78.20;;;;;;5113014;28;20216;-77
2022/08/07 07:12:18;;;;;;;3.20;3.00;;;30.80;90.60;;;;;;5112945;28;20191;-76
2022/08/07 07:15:12;;;;;;;3.10;2.90;;;30.40;90.10;;;;;;5113606;28;20167;-77
2022/08/07 07:17:51;;;;;;;3.05;2.85;;;28.60;93.90;;;;;;5113323;28;20163;-77
2022/08/07 07:20:26;;;;;;;4.43;3.30;;;29.30;97.10;;;;;;5113161;28;20168;-77
2022/08/07 07:22:53;;;;;;;3.88;3.63;;;30.10;94.10;;;;;;5113721;28;20286;-77
2022/08/07 07:25:20;;;;;;;2.88;2.75;;;30.10;90.90;;;;;;5113299;28;20163;-77
2022/08/07 07:28:13;;;;;;;3.88;3.30;;;31.10;85.50;;;;;;5112574;28;20183;-76
2022/08/07 07:30:42;;;;;;;2.92;2.72;;;30.40;81.40;;;;;;5077387;28;20320;-77
2022/08/07 07:33:13;;;;;;;4.53;3.33;;;30.90;81.10;;;;;;5113272;28;20159;-76
2022/08/07 07:35:43;;;;;;;3.03;2.83;;;30.80;72.00;;;;;;5094871;28;20532;-76
2022/08/07 07:38:11;;;;;;;2.88;2.70;;;30.30;74.90;;;;;;5113430;28;20631;-76
2022/08/07 07:40:39;;;;;;;3.15;2.85;;;30.50;73.30;;;;;;5113093;28;20205;-76
2022/08/07 07:43:05;;;;;;;2.80;2.58;;;29.70;73.40;;;;;;5113175;28;20207;-76
2022/08/07 07:45:31;;;;;;;2.65;2.45;;;30.80;74.50;;;;;;5112471;28;20162;-77
2022/08/07 07:47:58;;;;;;;3.50;3.13;;;30.80;59.90;;;;;;5113292;28;20208;-76
2022/08/07 07:50:26;;;;;;;3.13;2.83;;;30.10;68.70;;;;;;5112938;28;20177;-76
2022/08/07 07:52:53;;;;;;;3.15;2.85;;;30.70;64.20;;;;;;5112750;28;20178;-76
2022/08/07 07:55:20;;;;;;;3.00;2.78;;;29.60;69.00;;;;;;5112862;28;20210;-76
2022/08/07 07:57:49;;;;;;;2.60;2.40;;;29.00;72.00;;;;;;5112914;28;20357;-76
2022/08/07 08:00:17;;;;;;;2.60;2.35;;;30.50;70.50;;;;;;5112598;28;20194;-76
2022/08/07 08:02:46;;;;;;;2.30;2.20;;;31.70;63.40;;;;;;5112718;28;20229;-76
2022/08/07 08:05:13;;;;;;;2.50;2.30;;;33.10;52.50;;;;;;5112256;28;20178;-76
2022/08/07 08:07:40;;;;;;;3.30;2.38;;;34.00;36.80;;;;;;5112973;28;20171;-76
2022/08/07 08:10:07;;;;;;;3.30;2.50;;;33.70;29.20;;;;;;5112750;28;20174;-76
2022/08/07 08:12:34;;;;;;;3.05;2.85;;;34.40;24.20;;;;;;5111950;28;20219;-76
2022/08/07 08:15:00;;;;;;;2.88;2.60;;;33.40;20.00;;;;;;5112999;28;20179;-76
2022/08/07 08:17:28;;;;;;;2.90;2.80;;;32.80;22.90;;;;;;5112659;28;20163;-76
2022/08/07 08:20:03;;;;;;;2.47;2.28;;;31.80;26.40;;;;;;5112400;28;20262;-76
2022/08/07 08:28:04;;;;;;;2.78;2.58;;;32.40;15.70;;;;;;5116599;28;20220;-75
2022/08/07 08:30:32;;;;;;;2.85;2.65;;;32.70;19.50;;;;;;5116458;28;20652;-75
2022/08/07 08:33:02;;;;;;;2.95;2.65;;;32.40;19.20;;;;;;5115812;28;20163;-76
2022/08/07 08:35:30;;;;;;;2.70;2.60;;;33.10;17.90;;;;;;5116250;28;20168;-75
2022/08/07 08:37:58;;;;;;;2.72;2.35;;;32.80;17.80;;;;;;5097796;28;20175;-75
2022/08/07 08:40:32;;;;;;;2.70;2.50;;;33.90;13.00;;;;;;5116438;28;20164;-73
2022/08/07 08:43:13;;;;;;;3.88;2.63;;;34.90;8.30;;;;;;5116188;28;20198;-73
2022/08/07 08:45:52;;;;;;;2.53;2.33;;;35.50;4.10;;;;;;5115530;28;20300;-73
2022/08/07 08:48:31;;;;;;;3.05;2.58;;;35.60;1.00;;;;;;5115338;28;20664;-73
2022/08/07 08:51:07;;;;;;;2.13;1.92;;;35.90;1.00;;;;;;5115996;28;20162;-73
2022/08/07 08:53:45;;;;;;;2.42;2.28;;;35.70;1.00;;;;;;5115580;28;20227;-73
2022/08/07 08:56:15;;;;;;;4.80;2.92;;;34.80;1.00;;;;;;5096878;28;20171;-75
2022/08/07 08:59:01;;;;;;;2.65;2.33;;;32.80;1.00;;;;;;5097302;28;20167;-75
2022/08/07 09:01:41;;;;;;;2.38;2.15;;;31.70;2.10;;;;;;5115887;28;20672;-74
2022/08/07 09:04:13;;;;;;;2.42;2.20;;;31.60;7.70;;;;;;5115377;28;20214;-74
2022/08/07 09:07:07;;;;;;;2.67;2.45;;;33.40;1.00;;;;;;5115504;28;20200;-74
2022/08/07 09:09:44;;;;;;;2.10;2.00;;;34.70;1.00;;;;;;5115287;28;20171;-74
2022/08/07 09:12:40;;;;;;;3.78;2.30;;;35.60;1.00;;;;;;5115544;28;20233;-74
2022/08/07 09:15:12;;;;;;;3.85;2.47;;;35.30;1.00;;;;;;5096997;28;20261;-74
2022/08/07 09:18:15;;;;;;;2.47;2.28;;;34.90;1.00;;;;;;5114445;28;20200;-73
2022/08/07 09:21:16;;;;;;;2.25;2.15;;;35.70;1.00;;;;;;5115390;28;20178;-74
2022/08/07 09:23:55;;;;;;;1.98;1.88;;;35.50;1.00;;;;;;5096802;28;20209;-74
2022/08/07 09:26:43;;;;;;;2.08;1.98;;;35.10;1.00;;;;;;5115376;28;20171;-74
2022/08/07 09:29:32;;;;;;;2.47;2.28;;;35.90;1.00;;;;;;5096724;28;20261;-74
2022/08/07 09:32:12;;;;;;;2.63;2.40;;;36.20;1.00;;;;;;5114320;28;20195;-74
2022/08/07 09:35:11;;;;;;;2.25;2.05;;;33.90;1.00;;;;;;5115340;28;20163;-75
2022/08/07 09:37:52;;;;;;;2.13;1.85;;;33.00;1.00;;;;;;5114906;28;20211;-76
2022/08/07 09:40:39;;;;;;;2.10;1.90;;;32.00;1.00;;;;;;5114961;28;20163;-75
2022/08/07 09:43:10;;;;;;;2.47;2.28;;;33.00;1.00;;;;;;5114482;28;20203;-75
2022/08/07 09:45:53;;;;;;;2.65;1.95;;;34.00;1.00;;;;;;5114460;28;20693;-75
2022/08/07 09:48:59;;;;;;;1.95;1.80;;;34.20;1.00;;;;;;5114330;28;20159;-75
2022/08/07 09:52:06;;;;;;;2.45;1.98;;;34.50;1.00;;;;;;5114924;28;20163;-75
2022/08/07 09:54:34;;;;;;;2.10;1.90;;;34.40;1.00;;;;;;5042088;28;20193;-75
2022/08/07 09:57:18;;;;;;;1.60;1.50;;;34.30;1.00;;;;;;5114644;28;20163;-78
2022/08/07 10:00:08;;;;;;;4.78;1.83;;;31.80;1.00;;;;;;5114127;28;20205;-78
2022/08/07 10:02:33;;;;;;;1.95;1.80;;;32.60;1.00;;;;;;5114427;28;20163;-77
2022/08/07 10:05:17;;;;;;;2.30;2.10;;;32.80;1.00;;;;;;5113981;28;20658;-77
2022/08/07 10:07:52;;;;;;;2.53;1.80;;;33.60;1.00;;;;;;5114306;28;20174;-77
2022/08/07 10:10:39;;;;;;;2.38;2.10;;;33.90;1.00;;;;;;5113940;28;20660;-77
2022/08/07 10:13:19;;;;;;;1.92;1.77;;;34.30;1.00;;;;;;5114166;28;20257;-77
2022/08/07 10:16:05;;;;;;;2.60;1.60;;;34.50;1.00;;;;;;5113596;28;20167;-78
2022/08/07 10:19:10;;;;;;;1.98;1.88;;;33.50;1.00;;;;;;5114543;28;20170;-79
2022/08/07 10:22:03;;;;;;;2.78;2.10;;;32.40;1.00;;;;;;5113092;28;20245;-79
2022/08/07 10:25:02;;;;;;;2.00;1.90;;;32.40;1.00;;;;;;5114368;28;20218;-78
2022/08/07 10:27:52;;;;;;;3.80;1.83;;;32.40;1.00;;;;;;5114081;28;20292;-78
2022/08/07 10:30:26;;;;;;;2.67;2.58;;;33.20;1.00;;;;;;5113834;28;20163;-78
2022/08/07 10:33:13;;;;;;;3.50;2.00;;;33.10;1.00;;;;;;5113548;28;20175;-76
2022/08/07 10:35:59;;;;;;;2.70;2.50;;;32.10;1.00;;;;;;5114332;28;20170;-78
2022/08/07 10:38:37;;;;;;;2.00;1.77;;;30.60;1.00;;;;;;5095585;28;20223;-77
2022/08/07 10:41:25;;;;;;;2.70;2.50;;;31.10;1.00;;;;;;5113886;28;20170;-76
2022/08/07 10:44:09;;;;;;;2.53;2.15;;;32.30;1.00;;;;;;5112520;28;20199;-77
2022/08/07 10:46:45;;;;;;;1.75;1.65;;;32.00;1.00;;;;;;5113968;28;20171;-76
2022/08/07 10:49:46;;;;;;;2.30;2.00;;;31.40;1.00;;;;;;5113510;28;20196;-76
2022/08/07 10:52:18;;;;;;;2.38;1.48;;;31.60;1.00;;;;;;5109874;28;20582;-76
2022/08/07 10:54:58;;;;;;;4.60;2.83;;;32.90;1.00;;;;;;5113977;28;20225;-76
2022/08/07 10:57:38;;;;;;;2.95;1.67;;;33.60;1.00;;;;;;5113410;28;20199;-76
2022/08/07 11:00:09;;;;;;;2.90;2.65;;;33.60;1.00;;;;;;5113147;28;20170;-75
2022/08/07 11:02:38;;;;;;;2.33;2.20;;;31.70;1.00;;;;;;5114151;28;20178;-76
2022/08/07 11:05:41;;;;;;;2.20;1.85;;;30.50;1.00;;;;;;5113275;28;20222;-76
2022/08/07 11:08:27;;;;;;;1.95;1.80;;;30.80;1.00;;;;;;5030066;28;20184;-76
2022/08/07 11:11:06;;;;;;;2.20;2.10;;;30.70;1.00;;;;;;5109313;28;20254;-75
2022/08/07 11:14:04;;;;;;;2.30;1.70;;;31.30;1.00;;;;;;5112203;28;20229;-76
2022/08/07 11:16:39;;;;;;;2.28;1.75;;;30.60;1.00;;;;;;5099168;28;20236;-75
2022/08/07 11:19:18;;;;;;;1.90;1.80;;;30.20;1.00;;;;;;5113397;28;20159;-75
2022/08/07 11:21:53;;;;;;;1.83;1.73;;;30.00;1.00;;;;;;5112922;28;20167;-78
2022/08/07 11:24:37;;;;;;;3.05;2.85;;;28.60;1.00;;;;;;5112487;28;20331;-78
2022/08/07 11:27:26;;;;;;;2.10;2.00;;;29.10;1.00;;;;;;5113067;28;20182;-76
2022/08/07 11:30:01;;;;;;;2.55;1.77;;;30.30;1.00;;;;;;5112850;28;20246;-76
2022/08/07 11:32:52;;;;;;;1.83;1.73;;;29.70;1.00;;;;;;5113009;28;20208;-76
2022/08/07 11:35:22;;;;;;;1.60;1.50;;;30.80;1.00;;;;;;5113581;28;20174;-76
2022/08/07 11:38:13;;;;;;;1.98;1.80;;;32.30;1.00;;;;;;5113304;28;20654;-76
2022/08/07 11:40:50;;;;;;;2.28;1.90;;;32.70;1.00;;;;;;5112416;28;20220;-77
2022/08/07 11:43:18;;;;;;;2.10;2.00;;;31.40;1.00;;;;;;5112822;28;20210;-77
2022/08/07 11:46:02;;;;;;;1.95;1.75;;;30.50;1.00;;;;;;5112677;28;20625;-77
2022/08/07 11:48:40;;;;;;;1.80;1.70;;;30.60;1.00;;;;;;5112735;28;20649;-78
2022/08/07 11:51:18;;;;;;;2.13;1.90;;;30.60;1.00;;;;;;5094610;28;20170;-77
2022/08/07 11:54:16;;;;;;;2.05;1.90;;;29.70;1.00;;;;;;5113158;28;20171;-77
2022/08/07 11:57:15;;;;;;;1.90;1.80;;;29.00;1.00;;;;;;5115594;28;20190;-78
2022/08/07 12:00:04;;;;;;;2.17;2.00;;;29.30;1.00;;;;;;5054693;28;20176;-78
2022/08/07 12:02:33;;;;;;;1.65;1.50;;;29.90;1.00;;;;;;5117195;28;20191;-79
2022/08/07 12:05:17;;;;;;;1.90;1.80;;;29.30;1.00;;;;;;5116161;28;20225;-80
2022/08/07 12:07:52;;;;;;;2.63;1.80;;;28.90;1.00;;;;;;5098691;28;20262;-82
2022/08/07 12:10:38;;;;;;;2.75;1.58;;;29.30;1.00;;;;;;5116213;28;20221;-80
2022/08/07 12:13:28;;;;;;;1.50;1.40;;;29.50;1.00;;;;;;5116458;28;20276;-79
2022/08/07 12:16:02;;;;;;;1.90;1.80;;;28.90;1.00;;;;;;5116877;28;20167;-78
2022/08/07 12:18:35;;;;;;;5.38;2.30;;;28.30;1.00;;;;;;5116800;28;20175;-81
2022/08/07 12:21:23;;;;;;;2.53;2.00;;;28.10;1.00;;;;;;5098020;28;20250;-79
2022/08/07 12:24:02;;;;;;;3.88;2.15;;;27.90;1.00;;;;;;5116699;28;20198;-80
2022/08/07 12:26:41;;;;;;;3.28;1.77;;;28.10;1.00;;;;;;5116134;28;20174;-80
2022/08/07 12:29:32;;;;;;;1.77;1.67;;;27.90;1.00;;;;;;5116505;28;20163;-80
2022/08/07 12:32:07;;;;;;;1.85;1.75;;;28.00;6.80;;;;;;5116665;28;20223;-79
2022/08/07 12:34:37;;;;;;;1.80;1.70;;;26.70;1.00;;;;;;5116288;28;20163;-79
2022/08/07 12:37:05;;;;;;;1.90;1.80;;;25.70;1.00;;;;;;5116329;28;20232;-79
2022/08/07 12:39:32;;;;;;;1.73;1.63;;;26.00;3.40;;;;;;5115407;28;20726;-78
2022/08/07 12:41:59;;;;;;;2.80;1.90;;;25.40;3.00;;;;;;5115841;28;20179;-78
2022/08/07 12:44:27;;;;;;;1.58;1.40;;;25.30;3.40;;;;;;5115754;28;20202;-79
2022/08/07 12:47:09;;;;;;;2.03;1.92;;;25.00;2.50;;;;;;5115218;28;20171;-79
2022/08/07 12:49:43;;;;;;;1.52;1.23;;;25.20;18.10;;;;;;5115706;28;20524;-78
2022/08/07 12:52:12;;;;;;;2.08;1.40;;;25.30;1.00;;;;;;5115890;28;20166;-79
2022/08/07 12:54:47;;;;;;;1.52;1.42;;;25.40;1.00;;;;;;5115615;28;20630;-79
2022/08/07 12:57:16;;;;;;;2.63;1.90;;;25.50;2.00;;;;;;5115649;28;20747;-79
2022/08/07 12:59:42;;;;;;;5.07;1.60;;;25.70;1.60;;;;;;5115777;28;20232;-80
2022/08/07 13:02:20;;;;;;;1.95;1.50;;;25.90;2.60;;;;;;5097895;28;20529;-79
2022/08/07 13:04:55;;;;;;;3.08;1.88;;;25.90;3.10;;;;;;5115522;28;20203;-80
2022/08/07 13:07:50;;;;;;;1.92;1.80;;;26.30;5.20;;;;;;5115011;28;20238;-80
2022/08/07 13:10:30;;;;;;;2.33;1.90;;;26.40;5.80;;;;;;5032281;28;20193;-80
2022/08/07 13:13:14;;;;;;;1.75;1.65;;;26.20;5.60;;;;;;5015837;28;20581;-80
2022/08/07 13:15:52;;;;;;;4.18;2.00;;;26.30;7.60;;;;;;5032758;28;20689;-79
2022/08/07 13:18:23;;;;;;;2.08;1.75;;;25.40;7.80;;;;;;5032281;28;20672;-78
2022/08/07 13:20:56;;;;;;;1.65;1.55;;;25.20;9.70;;;;;;5032645;28;20252;-78
2022/08/07 13:23:36;;;;;;;3.53;1.85;;;25.10;28.10;;;;;;5032229;28;20237;-79
2022/08/07 13:26:10;;;;;;;2.35;2.15;;;25.50;14.30;;;;;;5032807;28;20260;-78
2022/08/07 13:28:46;;;;;;;2.42;1.90;;;25.90;13.70;;;;;;5032427;28;20637;-78